Terminal Aerodrome Forecast
Issued by NWS

Home | Current Version | Previous Version | Graphics & Text | Print | Product List | Glossary On
Versions: 1 2 3 4 5 6 7 8 9 10 11 12 13 14 15 16 17
000
FTUS43 KTOP 291100
TAFMHK
TAF
KMHK 291122Z 2912/3012 00000KT P6SM SKC
     FM291400 16007KT P6SM FEW060
     FM300700 15004KT P6SM BKN090=

USA.gov is the U.S. government's official web portal to all federal, state and local government web resources and services.